Time;durP1;ratioP1;P1;durP2;ratioP2;P2;SDS_P1;SDS_P2;PMS_P1;PMS_P2;Temp;Humidity;BMP_temperature;BMP_pressure;BME280_temperature;BME280_humidity;BME280_pressure;Samples;Min_cycle;Max_cycle;Signal;HPM_P1;HPM_P2
2021/12/02 00:01:34;;;;;;;7.78;1.48;;;;;;;;;;5128345;27;20054;-66
2021/12/02 00:04:00;;;;;;;12.68;1.45;;;;;;;;;;5126901;27;20433;-66
2021/12/02 00:06:26;;;;;;;7.75;1.20;;;;;;;;;;5111345;27;20221;-67
2021/12/02 00:08:53;;;;;;;8.77;1.33;;;;;;;;;;5123066;27;20517;-67
2021/12/02 00:11:19;;;;;;;6.13;1.27;;;;;;;;;;5107871;27;20588;-66
2021/12/02 00:21:20;;;;;;;10.27;1.00;;;;;;;;;;5127155;27;20105;-66
2021/12/02 00:24:05;;;;;;;7.05;1.27;;;;;;;;;;5128001;27;20062;-66
2021/12/02 00:26:33;;;;;;;9.38;1.30;;;;;;;;;;5110734;27;20106;-67
2021/12/02 00:29:00;;;;;;;4.10;0.93;;;;;;;;;;5116007;27;20363;-66
2021/12/02 00:31:29;;;;;;;9.88;1.33;;;;;;;;;;5125182;27;20070;-66
2021/12/02 00:33:57;;;;;;;10.00;1.00;;;;;;;;;;5124813;27;20052;-66
2021/12/02 00:36:25;;;;;;;4.00;0.75;;;;;;;;;;5125121;27;20143;-66
2021/12/02 00:38:52;;;;;;;6.00;0.90;;;;;;;;;;5125173;27;20158;-67
2021/12/02 00:41:20;;;;;;;7.95;1.20;;;;;;;;;;5117432;27;20146;-66
2021/12/02 00:43:47;;;;;;;7.70;1.33;;;;;;;;;;5125533;27;20991;-66
2021/12/02 00:46:18;;;;;;;5.25;1.13;;;;;;;;;;5129735;27;20278;-66
2021/12/02 00:48:45;;;;;;;6.68;0.93;;;;;;;;;;5117295;27;20125;-66
2021/12/02 00:51:12;;;;;;;3.35;0.70;;;;;;;;;;5125008;27;20935;-66
2021/12/02 00:53:44;;;;;;;7.28;1.10;;;;;;;;;;5116122;27;20500;-66
2021/12/02 00:56:11;;;;;;;11.45;1.02;;;;;;;;;;5128955;27;20051;-66
2021/12/02 00:58:38;;;;;;;4.53;1.02;;;;;;;;;;5127096;27;20536;-66
2021/12/02 01:01:05;;;;;;;10.65;1.00;;;;;;;;;;5127496;27;20048;-66
2021/12/02 01:03:34;;;;;;;8.52;1.52;;;;;;;;;;5123566;27;20056;-66
2021/12/02 01:06:02;;;;;;;4.32;1.10;;;;;;;;;;5131183;27;20947;-66
2021/12/02 01:08:29;;;;;;;6.45;0.70;;;;;;;;;;5122430;27;20058;-66
2021/12/02 01:10:56;;;;;;;2.25;0.63;;;;;;;;;;5130434;27;20147;-65
2021/12/02 01:13:22;;;;;;;15.55;1.30;;;;;;;;;;5127327;27;20113;-66
2021/12/02 01:15:49;;;;;;;11.35;1.45;;;;;;;;;;5122259;27;20074;-66
2021/12/02 01:18:15;;;;;;;14.10;1.10;;;;;;;;;;5112274;27;20171;-66
2021/12/02 01:20:42;;;;;;;13.57;2.10;;;;;;;;;;5130981;27;20577;-66
2021/12/02 01:23:09;;;;;;;14.90;1.48;;;;;;;;;;5122709;27;20043;-66
2021/12/02 01:25:36;;;;;;;12.15;1.58;;;;;;;;;;5122113;27;20147;-66
2021/12/02 01:28:02;;;;;;;9.77;1.45;;;;;;;;;;5123419;27;20497;-66
2021/12/02 01:30:29;;;;;;;12.02;1.20;;;;;;;;;;5130735;27;20142;-66
2021/12/02 01:33:02;;;;;;;8.18;1.63;;;;;;;;;;5126106;27;20420;-66
2021/12/02 01:35:29;;;;;;;11.32;1.20;;;;;;;;;;5121816;27;20055;-66
2021/12/02 01:37:56;;;;;;;7.80;1.20;;;;;;;;;;5126773;27;20109;-66
2021/12/02 01:40:22;;;;;;;8.82;0.88;;;;;;;;;;5130777;27;20139;-66
2021/12/02 01:42:53;;;;;;;6.03;1.20;;;;;;;;;;5121747;27;20131;-66
2021/12/02 01:45:20;;;;;;;10.50;1.02;;;;;;;;;;5130903;27;20505;-66
2021/12/02 01:47:48;;;;;;;6.57;1.17;;;;;;;;;;5114713;27;20143;-66
2021/12/02 01:50:16;;;;;;;6.80;1.48;;;;;;;;;;5126315;27;20524;-67
2021/12/02 01:52:45;;;;;;;8.77;1.67;;;;;;;;;;5118390;27;20051;-67
2021/12/02 01:55:13;;;;;;;12.20;1.20;;;;;;;;;;5119552;27;20054;-66
2021/12/02 01:57:41;;;;;;;16.80;1.10;;;;;;;;;;5127003;27;20051;-65
2021/12/02 02:00:15;;;;;;;5.95;1.08;;;;;;;;;;5116014;27;20048;-67
2021/12/02 02:02:42;;;;;;;15.80;1.00;;;;;;;;;;5115450;27;20051;-66
2021/12/02 02:05:13;;;;;;;12.48;1.45;;;;;;;;;;5129693;27;20121;-68
2021/12/02 02:07:52;;;;;;;6.25;1.13;;;;;;;;;;5115922;27;20052;-69
2021/12/02 02:10:18;;;;;;;7.30;1.20;;;;;;;;;;5128526;27;20178;-65
2021/12/02 02:12:45;;;;;;;8.32;1.33;;;;;;;;;;5121718;27;20178;-65
2021/12/02 02:15:11;;;;;;;2.97;0.90;;;;;;;;;;5115870;27;20476;-66
2021/12/02 02:17:57;;;;;;;14.00;1.30;;;;;;;;;;5127205;27;20549;-65
2021/12/02 02:20:25;;;;;;;8.93;1.42;;;;;;;;;;5118546;27;20090;-66
2021/12/02 02:22:51;;;;;;;4.40;1.00;;;;;;;;;;5121787;27;20140;-65
2021/12/02 02:25:19;;;;;;;9.50;1.17;;;;;;;;;;5126614;27;20583;-66
2021/12/02 02:27:45;;;;;;;4.93;1.02;;;;;;;;;;5116063;27;20147;-66
2021/12/02 02:30:11;;;;;;;5.13;0.80;;;;;;;;;;5127672;27;20600;-66
2021/12/02 02:32:38;;;;;;;7.28;1.20;;;;;;;;;;5128911;27;20497;-65
2021/12/02 02:35:05;;;;;;;5.28;1.00;;;;;;;;;;5114293;27;20590;-65
2021/12/02 02:37:35;;;;;;;9.65;1.17;;;;;;;;;;5122257;27;20521;-66
2021/12/02 02:40:05;;;;;;;11.32;1.10;;;;;;;;;;5122812;27;20052;-65
2021/12/02 02:42:31;;;;;;;14.65;1.42;;;;;;;;;;5121731;27;20475;-65
2021/12/02 02:44:58;;;;;;;9.27;1.00;;;;;;;;;;5128976;27;20142;-66
2021/12/02 02:47:26;;;;;;;10.48;1.20;;;;;;;;;;5117687;27;20666;-65
2021/12/02 02:49:53;;;;;;;14.35;1.75;;;;;;;;;;5120625;27;20549;-65
2021/12/02 02:52:20;;;;;;;6.40;1.70;;;;;;;;;;5123997;27;20066;-65
2021/12/02 02:54:47;;;;;;;13.43;1.88;;;;;;;;;;5127652;27;20154;-65
2021/12/02 02:57:16;;;;;;;6.75;0.90;;;;;;;;;;5109015;27;20052;-65
2021/12/02 03:02:43;;;;;;;12.93;1.20;;;;;;;;;;5112767;27;20048;-65
2021/12/02 03:07:47;;;;;;;11.88;1.20;;;;;;;;;;5116705;27;20087;-65
2021/12/02 03:10:32;;;;;;;6.85;1.20;;;;;;;;;;5118643;27;20425;-65
2021/12/02 03:13:10;;;;;;;12.00;1.10;;;;;;;;;;5116532;27;20527;-65
2021/12/02 03:18:22;;;;;;;9.65;1.08;;;;;;;;;;5123734;27;20052;-65
2021/12/02 03:20:48;;;;;;;9.68;1.38;;;;;;;;;;5115621;27;20925;-65
2021/12/02 03:23:14;;;;;;;12.82;1.48;;;;;;;;;;5124060;27;20150;-65
2021/12/02 03:25:41;;;;;;;8.80;1.27;;;;;;;;;;5110690;27;20058;-65
2021/12/02 03:28:08;;;;;;;11.13;1.42;;;;;;;;;;5122345;27;20583;-65
2021/12/02 03:30:34;;;;;;;9.00;0.93;;;;;;;;;;5124100;27;20520;-65
2021/12/02 03:33:00;;;;;;;5.85;0.77;;;;;;;;;;5123655;27;20546;-65
2021/12/02 03:35:27;;;;;;;10.68;1.50;;;;;;;;;;5111275;27;20075;-65
2021/12/02 03:37:53;;;;;;;11.13;1.15;;;;;;;;;;5124162;27;20051;-65
2021/12/02 03:40:19;;;;;;;8.13;1.50;;;;;;;;;;5128602;27;20056;-65
2021/12/02 03:42:47;;;;;;;13.52;1.40;;;;;;;;;;5119503;27;20200;-65
2021/12/02 03:45:14;;;;;;;9.73;1.00;;;;;;;;;;5128410;27;20579;-65
2021/12/02 03:47:40;;;;;;;7.78;1.20;;;;;;;;;;5115213;27;20044;-65
2021/12/02 03:50:07;;;;;;;8.20;1.10;;;;;;;;;;5109034;27;20056;-65
2021/12/02 03:52:33;;;;;;;8.68;0.95;;;;;;;;;;5116936;27;20066;-65
2021/12/02 03:54:59;;;;;;;5.03;1.20;;;;;;;;;;5128754;27;20058;-65
2021/12/02 03:57:28;;;;;;;8.57;1.00;;;;;;;;;;5123214;27;20055;-67
2021/12/02 03:59:55;;;;;;;21.67;1.65;;;;;;;;;;5128292;27;20560;-66
2021/12/02 04:02:21;;;;;;;8.85;1.10;;;;;;;;;;5119865;27;20109;-66
2021/12/02 04:04:47;;;;;;;22.33;3.35;;;;;;;;;;5115901;27;20056;-66
2021/12/02 04:07:17;;;;;;;8.18;0.80;;;;;;;;;;5116498;27;20589;-65
2021/12/02 04:09:45;;;;;;;9.13;1.17;;;;;;;;;;5126285;27;20055;-65
2021/12/02 04:15:10;;;;;;;11.88;1.45;;;;;;;;;;5111008;27;20068;-65
2021/12/02 04:17:43;;;;;;;5.60;0.80;;;;;;;;;;5132391;27;20053;-66
2021/12/02 04:20:10;;;;;;;12.80;1.10;;;;;;;;;;5117295;27;20528;-66
2021/12/02 04:22:37;;;;;;;11.60;1.27;;;;;;;;;;5127016;27;20043;-66
2021/12/02 04:25:04;;;;;;;6.90;0.85;;;;;;;;;;5132160;27;20501;-65
2021/12/02 04:27:30;;;;;;;6.15;0.70;;;;;;;;;;5131959;27;20044;-66
2021/12/02 04:29:56;;;;;;;6.03;0.80;;;;;;;;;;5130942;27;20511;-66
2021/12/02 04:32:23;;;;;;;11.88;1.38;;;;;;;;;;5124091;27;20048;-66
2021/12/02 04:34:50;;;;;;;9.63;1.00;;;;;;;;;;5123894;27;20482;-65
2021/12/02 04:37:16;;;;;;;7.88;1.20;;;;;;;;;;5131300;27;20135;-65
2021/12/02 04:39:42;;;;;;;5.47;0.85;;;;;;;;;;5121893;27;20056;-65
2021/12/02 04:42:09;;;;;;;2.95;0.57;;;;;;;;;;5121813;27;20051;-65
2021/12/02 04:44:35;;;;;;;8.55;0.75;;;;;;;;;;5131360;27;20086;-66
2021/12/02 04:47:01;;;;;;;10.10;0.65;;;;;;;;;;5131989;27;20055;-66
2021/12/02 04:49:28;;;;;;;5.85;0.93;;;;;;;;;;5126503;27;20051;-66
2021/12/02 04:51:54;;;;;;;5.82;0.77;;;;;;;;;;5130797;27;20502;-65
2021/12/02 04:54:20;;;;;;;4.95;0.70;;;;;;;;;;5130549;27;20062;-65
2021/12/02 04:56:47;;;;;;;6.15;0.80;;;;;;;;;;5123288;27;20054;-65
2021/12/02 04:59:13;;;;;;;6.97;0.57;;;;;;;;;;5113867;27;20062;-65
2021/12/02 05:01:40;;;;;;;4.15;0.82;;;;;;;;;;5126142;27;20052;-65
2021/12/02 05:04:06;;;;;;;9.65;0.93;;;;;;;;;;5122118;27;20569;-66
2021/12/02 05:06:33;;;;;;;10.90;0.80;;;;;;;;;;5116585;27;20087;-65
2021/12/02 05:08:59;;;;;;;10.88;1.00;;;;;;;;;;5129496;27;20062;-66
2021/12/02 05:11:26;;;;;;;7.70;1.05;;;;;;;;;;5131610;27;20051;-65
2021/12/02 05:13:52;;;;;;;8.63;0.90;;;;;;;;;;5124858;27;20076;-66
2021/12/02 05:16:18;;;;;;;5.97;1.13;;;;;;;;;;5122095;27;20420;-66
2021/12/02 05:18:45;;;;;;;14.35;1.52;;;;;;;;;;5125346;27;20125;-66
2021/12/02 05:21:11;;;;;;;6.25;0.85;;;;;;;;;;5130590;27;20054;-66
2021/12/02 05:23:38;;;;;;;6.38;1.02;;;;;;;;;;5129169;27;20124;-65
2021/12/02 05:26:04;;;;;;;4.88;1.08;;;;;;;;;;5130804;27;20055;-66
2021/12/02 05:28:30;;;;;;;13.90;1.48;;;;;;;;;;5129948;27;20486;-65
2021/12/02 05:30:57;;;;;;;3.67;0.75;;;;;;;;;;5127682;27;20059;-66
2021/12/02 05:33:23;;;;;;;3.92;0.85;;;;;;;;;;5128713;27;20497;-67
2021/12/02 05:35:49;;;;;;;6.07;1.15;;;;;;;;;;5119246;27;20048;-65
2021/12/02 05:38:16;;;;;;;10.43;1.50;;;;;;;;;;5130141;27;20528;-67
2021/12/02 05:40:42;;;;;;;8.48;1.48;;;;;;;;;;5129863;27;20052;-67
2021/12/02 05:43:09;;;;;;;6.47;1.30;;;;;;;;;;5129281;27;20138;-65
2021/12/02 05:45:35;;;;;;;10.27;1.33;;;;;;;;;;5125716;27;20883;-67
2021/12/02 05:48:02;;;;;;;11.65;1.40;;;;;;;;;;5130653;27;20151;-67
2021/12/02 05:50:28;;;;;;;6.07;1.15;;;;;;;;;;5129517;27;20105;-67
2021/12/02 05:52:54;;;;;;;4.88;0.90;;;;;;;;;;5130402;27;20425;-67
2021/12/02 05:55:21;;;;;;;6.32;0.70;;;;;;;;;;5130677;27;20051;-67
2021/12/02 05:57:47;;;;;;;10.40;1.00;;;;;;;;;;5128345;27;20079;-64
2021/12/02 06:00:14;;;;;;;3.45;0.68;;;;;;;;;;5116524;27;21033;-67
2021/12/02 06:02:41;;;;;;;6.20;0.90;;;;;;;;;;5116259;27;20079;-65
2021/12/02 06:05:07;;;;;;;5.40;0.55;;;;;;;;;;5114039;27;20060;-67
2021/12/02 06:07:34;;;;;;;8.77;0.95;;;;;;;;;;5115432;27;20051;-67
2021/12/02 06:10:00;;;;;;;4.93;0.65;;;;;;;;;;5130025;27;20855;-67
2021/12/02 06:12:26;;;;;;;6.80;1.05;;;;;;;;;;5130757;27;20849;-65
2021/12/02 06:14:53;;;;;;;9.18;0.98;;;;;;;;;;5115238;27;20055;-65
2021/12/02 06:17:19;;;;;;;9.30;1.20;;;;;;;;;;5129669;27;20505;-65
2021/12/02 06:19:45;;;;;;;6.38;0.75;;;;;;;;;;5129488;27;20060;-66
2021/12/02 06:22:13;;;;;;;6.18;0.98;;;;;;;;;;5111923;27;20052;-65
2021/12/02 06:24:43;;;;;;;3.45;0.93;;;;;;;;;;5124994;27;20058;-65
2021/12/02 06:27:10;;;;;;;9.52;1.35;;;;;;;;;;5129710;27;20048;-65
2021/12/02 06:29:37;;;;;;;3.85;0.93;;;;;;;;;;5120272;27;20144;-65
2021/12/02 06:32:04;;;;;;;8.32;1.17;;;;;;;;;;5119051;27;20529;-65
2021/12/02 06:34:31;;;;;;;17.02;1.55;;;;;;;;;;5129945;27;20079;-65
2021/12/02 06:36:57;;;;;;;4.85;1.50;;;;;;;;;;5129692;27;20062;-65
2021/12/02 06:39:23;;;;;;;6.28;1.55;;;;;;;;;;5126076;27;20101;-65
2021/12/02 06:41:50;;;;;;;6.95;1.80;;;;;;;;;;5117524;27;20555;-64
2021/12/02 06:44:16;;;;;;;9.73;2.00;;;;;;;;;;5129248;27;20945;-65
2021/12/02 06:46:42;;;;;;;11.90;1.95;;;;;;;;;;5129626;27;20055;-65
2021/12/02 06:49:09;;;;;;;14.55;3.17;;;;;;;;;;5126980;27;20094;-65
2021/12/02 06:51:35;;;;;;;11.45;3.35;;;;;;;;;;5128141;27;20139;-65
2021/12/02 06:54:04;;;;;;;15.02;2.17;;;;;;;;;;5129361;27;20048;-65
2021/12/02 06:56:49;;;;;;;8.40;2.30;;;;;;;;;;5114174;27;20579;-65
2021/12/02 06:59:15;;;;;;;7.18;1.90;;;;;;;;;;5112001;27;20089;-65
2021/12/02 07:01:43;;;;;;;9.25;2.20;;;;;;;;;;5115602;27;20497;-65
2021/12/02 07:04:09;;;;;;;10.60;1.98;;;;;;;;;;5115308;27;20581;-65
2021/12/02 07:06:39;;;;;;;11.30;2.00;;;;;;;;;;5125744;27;20574;-65
2021/12/02 07:09:06;;;;;;;8.88;2.10;;;;;;;;;;5129178;27;20058;-65
2021/12/02 07:11:32;;;;;;;6.93;1.70;;;;;;;;;;5129578;27;20159;-65
2021/12/02 07:14:12;;;;;;;17.70;2.22;;;;;;;;;;5118441;27;20083;-66
2021/12/02 07:16:39;;;;;;;9.90;1.70;;;;;;;;;;5128528;27;20050;-65
2021/12/02 07:19:06;;;;;;;6.15;2.17;;;;;;;;;;5126775;27;20050;-67
2021/12/02 07:21:38;;;;;;;12.35;1.60;;;;;;;;;;5128196;27;20050;-66
2021/12/02 07:24:09;;;;;;;16.02;2.05;;;;;;;;;;5119292;27;20075;-65
2021/12/02 07:26:41;;;;;;;12.60;1.75;;;;;;;;;;5123132;27;20123;-65
2021/12/02 07:29:08;;;;;;;9.23;1.90;;;;;;;;;;5126458;27;20139;-65
2021/12/02 07:31:35;;;;;;;10.00;1.48;;;;;;;;;;5119985;27;20154;-65
2021/12/02 07:34:02;;;;;;;9.15;1.67;;;;;;;;;;5129577;27;20083;-66
2021/12/02 07:36:29;;;;;;;6.95;0.85;;;;;;;;;;5129136;27;20143;-66
2021/12/02 07:38:55;;;;;;;7.10;1.13;;;;;;;;;;5126130;27;20135;-66
2021/12/02 07:41:22;;;;;;;7.38;1.20;;;;;;;;;;5125768;27;20052;-66
2021/12/02 07:43:48;;;;;;;7.00;1.13;;;;;;;;;;5127131;27;20538;-66
2021/12/02 07:46:14;;;;;;;9.18;0.82;;;;;;;;;;5126943;27;20130;-66
2021/12/02 07:48:41;;;;;;;8.35;1.45;;;;;;;;;;5127517;27;20059;-66
2021/12/02 07:51:08;;;;;;;4.85;1.30;;;;;;;;;;5110421;27;20522;-65
2021/12/02 07:53:35;;;;;;;5.23;1.20;;;;;;;;;;5128989;27;20044;-66
2021/12/02 07:56:03;;;;;;;8.45;1.75;;;;;;;;;;5124332;27;20056;-65
2021/12/02 07:58:30;;;;;;;13.77;2.50;;;;;;;;;;5121628;27;20108;-66
2021/12/02 08:01:00;;;;;;;7.50;2.08;;;;;;;;;;5119107;27;20063;-66
2021/12/02 08:03:29;;;;;;;15.40;2.40;;;;;;;;;;5125156;27;20051;-66
2021/12/02 08:05:55;;;;;;;10.05;2.20;;;;;;;;;;5128689;27;20056;-65
2021/12/02 08:08:22;;;;;;;8.82;1.70;;;;;;;;;;5128699;27;20058;-66
2021/12/02 08:10:51;;;;;;;9.70;1.80;;;;;;;;;;5127634;27;20150;-66
2021/12/02 08:13:18;;;;;;;10.65;2.28;;;;;;;;;;5121857;27;20056;-66
2021/12/02 08:15:45;;;;;;;10.70;2.03;;;;;;;;;;5128159;27;20052;-66
2021/12/02 08:18:11;;;;;;;10.52;2.00;;;;;;;;;;5127355;27;20055;-66
2021/12/02 08:20:38;;;;;;;10.88;2.10;;;;;;;;;;5127970;27;20477;-66
2021/12/02 08:23:04;;;;;;;9.57;1.83;;;;;;;;;;5129012;27;20150;-65
2021/12/02 08:25:32;;;;;;;10.88;2.00;;;;;;;;;;5108076;27;20491;-67
2021/12/02 08:28:00;;;;;;;13.10;1.80;;;;;;;;;;5117113;27;20132;-66
2021/12/02 08:30:27;;;;;;;8.20;1.87;;;;;;;;;;5120083;27;20151;-67
2021/12/02 08:32:54;;;;;;;11.00;2.53;;;;;;;;;;5119327;27;20062;-66
2021/12/02 08:35:21;;;;;;;9.20;2.53;;;;;;;;;;5124242;27;20444;-67
2021/12/02 08:37:49;;;;;;;8.90;3.13;;;;;;;;;;5128267;27;20511;-66
2021/12/02 08:40:23;;;;;;;11.52;2.85;;;;;;;;;;5122785;27;20139;-66
2021/12/02 08:42:49;;;;;;;12.98;3.05;;;;;;;;;;5124727;27;20052;-67
2021/12/02 08:45:16;;;;;;;8.55;2.58;;;;;;;;;;5128934;27;20086;-66
2021/12/02 08:47:45;;;;;;;13.82;3.03;;;;;;;;;;5124745;27;20040;-67
2021/12/02 08:50:16;;;;;;;16.65;4.05;;;;;;;;;;5127782;27;20063;-66
2021/12/02 08:52:43;;;;;;;7.35;2.35;;;;;;;;;;5128588;27;20135;-67
2021/12/02 08:55:09;;;;;;;17.65;3.40;;;;;;;;;;5125592;27;20052;-66
2021/12/02 08:57:44;;;;;;;14.10;3.25;;;;;;;;;;5129018;27;20056;-67
2021/12/02 09:00:12;;;;;;;15.82;2.88;;;;;;;;;;5129455;27;20048;-67
2021/12/02 09:02:38;;;;;;;8.35;1.92;;;;;;;;;;5126894;27;20054;-68
2021/12/02 09:05:05;;;;;;;9.20;1.90;;;;;;;;;;5127178;27;20994;-67
2021/12/02 09:07:32;;;;;;;5.65;1.77;;;;;;;;;;5131963;27;20555;-67
2021/12/02 09:09:58;;;;;;;14.77;2.40;;;;;;;;;;5130934;27;20047;-67
2021/12/02 09:12:25;;;;;;;13.38;2.33;;;;;;;;;;5131253;27;20575;-67
2021/12/02 09:14:51;;;;;;;11.25;2.03;;;;;;;;;;5131207;27;20059;-67
2021/12/02 09:17:18;;;;;;;10.15;1.83;;;;;;;;;;5130749;27;20060;-67
2021/12/02 09:19:45;;;;;;;9.63;1.80;;;;;;;;;;5130850;27;20082;-67
2021/12/02 09:22:11;;;;;;;8.05;1.90;;;;;;;;;;5128286;27;20931;-67
2021/12/02 09:24:39;;;;;;;15.90;2.45;;;;;;;;;;5129696;27;20095;-67
2021/12/02 09:27:05;;;;;;;13.93;2.92;;;;;;;;;;5128874;27;20493;-67
2021/12/02 09:29:32;;;;;;;9.70;1.85;;;;;;;;;;5131126;27;20062;-68
2021/12/02 09:31:58;;;;;;;5.80;1.52;;;;;;;;;;5130333;27;20047;-67
2021/12/02 09:34:26;;;;;;;7.03;1.45;;;;;;;;;;5130781;27;20078;-67
2021/12/02 09:36:53;;;;;;;7.43;1.55;;;;;;;;;;5123306;27;20612;-68
2021/12/02 09:39:20;;;;;;;9.95;1.60;;;;;;;;;;5119458;27;20055;-68
2021/12/02 09:41:46;;;;;;;10.30;2.20;;;;;;;;;;5129296;27;20048;-68
2021/12/02 09:44:14;;;;;;;9.13;2.20;;;;;;;;;;5130119;27;20050;-68
2021/12/02 09:46:41;;;;;;;6.82;1.25;;;;;;;;;;5116959;27;20083;-69
2021/12/02 09:49:09;;;;;;;9.13;1.60;;;;;;;;;;5119646;27;20522;-67
2021/12/02 09:52:00;;;;;;;5.47;1.27;;;;;;;;;;5117286;27;20048;-68
2021/12/02 09:54:36;;;;;;;4.82;1.23;;;;;;;;;;5130042;27;20050;-68
2021/12/02 09:57:05;;;;;;;5.93;1.40;;;;;;;;;;5112182;27;20066;-68
2021/12/02 09:59:46;;;;;;;7.47;1.50;;;;;;;;;;5130856;27;20047;-70
2021/12/02 10:02:15;;;;;;;6.65;1.83;;;;;;;;;;5129804;27;20132;-67
2021/12/02 10:04:48;;;;;;;6.15;1.63;;;;;;;;;;5130505;27;20060;-67
2021/12/02 10:09:57;;;;;;;9.57;1.88;;;;;;;;;;5129832;27;20527;-67
2021/12/02 10:12:26;;;;;;;5.22;1.52;;;;;;;;;;5122645;27;20052;-68
2021/12/02 10:14:57;;;;;;;4.43;1.35;;;;;;;;;;5120556;27;20062;-67
2021/12/02 10:20:21;;;;;;;5.85;1.30;;;;;;;;;;5130041;27;20142;-67
2021/12/02 10:23:10;;;;;;;3.97;1.30;;;;;;;;;;5125594;27;20094;-67
2021/12/02 10:25:38;;;;;;;4.25;1.10;;;;;;;;;;5127532;27;20589;-67
2021/12/02 10:28:09;;;;;;;5.60;0.80;;;;;;;;;;5127620;27;20142;-67
2021/12/02 10:30:40;;;;;;;3.70;0.73;;;;;;;;;;5127183;27;20047;-67
2021/12/02 10:33:06;;;;;;;3.90;0.75;;;;;;;;;;5128646;27;20198;-67
2021/12/02 10:35:37;;;;;;;6.47;1.02;;;;;;;;;;5126431;27;20135;-67
2021/12/02 10:38:03;;;;;;;5.88;1.60;;;;;;;;;;5125007;27;20562;-68
2021/12/02 10:40:30;;;;;;;7.15;2.53;;;;;;;;;;5133154;27;20565;-67
2021/12/02 10:43:04;;;;;;;4.78;1.20;;;;;;;;;;5130383;27;20051;-67
2021/12/02 10:45:31;;;;;;;5.20;1.50;;;;;;;;;;5125985;27;20165;-67
2021/12/02 10:47:57;;;;;;;4.20;1.50;;;;;;;;;;5131129;27;20058;-67
2021/12/02 10:50:25;;;;;;;6.15;1.10;;;;;;;;;;5129991;27;20052;-67
2021/12/02 10:52:51;;;;;;;2.17;0.85;;;;;;;;;;5129621;27;20087;-67
2021/12/02 10:55:21;;;;;;;3.60;0.90;;;;;;;;;;5125717;27;20075;-68
2021/12/02 10:57:54;;;;;;;4.45;1.10;;;;;;;;;;5129832;27;20410;-67
2021/12/02 11:00:24;;;;;;;3.42;1.00;;;;;;;;;;5118476;27;20139;-69
2021/12/02 11:02:55;;;;;;;4.18;1.08;;;;;;;;;;5123850;27;20989;-68
2021/12/02 11:05:24;;;;;;;6.07;1.65;;;;;;;;;;5126630;27;20138;-68
2021/12/02 11:07:52;;;;;;;7.22;1.92;;;;;;;;;;5115369;27;20531;-68
2021/12/02 11:10:18;;;;;;;3.93;1.50;;;;;;;;;;5128758;27;20498;-67
2021/12/02 11:12:48;;;;;;;8.88;2.00;;;;;;;;;;5129484;27;20353;-67
2021/12/02 11:15:16;;;;;;;6.65;2.35;;;;;;;;;;5124034;27;20144;-68
2021/12/02 11:17:44;;;;;;;4.20;1.30;;;;;;;;;;5129318;27;20166;-68
2021/12/02 11:20:15;;;;;;;6.80;2.08;;;;;;;;;;5126338;27;20051;-67
2021/12/02 11:22:41;;;;;;;7.07;2.05;;;;;;;;;;5127496;27;20502;-68
2021/12/02 11:25:09;;;;;;;5.40;1.90;;;;;;;;;;5127750;27;20116;-69
2021/12/02 11:27:37;;;;;;;5.95;1.98;;;;;;;;;;5129350;27;20497;-68
2021/12/02 11:30:04;;;;;;;;;;;;;;;;;;5122407;27;20075;-68
2021/12/02 11:32:32;;;;;;;4.10;1.60;;;;;;;;;;5127785;27;44921;-69
2021/12/02 11:35:09;;;;;;;5.25;1.70;;;;;;;;;;5120159;27;20135;-69
2021/12/02 11:37:37;;;;;;;7.10;2.03;;;;;;;;;;5126881;27;20189;-68
2021/12/02 11:40:06;;;;;;;4.88;1.90;;;;;;;;;;5129131;27;20083;-68
2021/12/02 11:42:34;;;;;;;5.18;1.80;;;;;;;;;;5126321;27;20079;-68
2021/12/02 11:45:00;;;;;;;6.40;2.20;;;;;;;;;;5119332;27;20143;-69
2021/12/02 11:47:26;;;;;;;9.98;2.95;;;;;;;;;;5129064;27;20850;-67
2021/12/02 11:49:53;;;;;;;9.07;3.22;;;;;;;;;;5128497;27;20527;-69
2021/12/02 11:52:20;;;;;;;9.90;3.63;;;;;;;;;;5125531;27;20062;-67
2021/12/02 11:54:46;;;;;;;8.93;3.60;;;;;;;;;;5115287;27;20048;-68
2021/12/02 11:57:13;;;;;;;14.40;5.88;;;;;;;;;;5128294;27;20097;-68
2021/12/02 11:59:39;;;;;;;13.63;4.88;;;;;;;;;;5125603;27;20058;-67
2021/12/02 12:02:06;;;;;;;14.30;5.53;;;;;;;;;;5128866;27;20063;-67
2021/12/02 12:04:35;;;;;;;13.40;5.13;;;;;;;;;;5123080;27;20105;-68
2021/12/02 12:07:10;;;;;;;10.63;5.03;;;;;;;;;;5126951;27;20141;-67
2021/12/02 12:09:36;;;;;;;14.77;5.72;;;;;;;;;;5113349;27;20056;-68
2021/12/02 12:12:03;;;;;;;14.77;4.90;;;;;;;;;;5125788;27;20497;-68
2021/12/02 12:14:49;;;;;;;10.70;4.07;;;;;;;;;;5110678;27;20048;-69
2021/12/02 12:17:17;;;;;;;11.93;4.90;;;;;;;;;;5111327;27;20047;-67
2021/12/02 12:19:44;;;;;;;9.85;3.47;;;;;;;;;;5127331;27;20066;-68
2021/12/02 12:22:29;;;;;;;11.50;4.33;;;;;;;;;;5128454;27;20146;-68
2021/12/02 12:25:00;;;;;;;10.95;4.45;;;;;;;;;;5127023;27;20587;-69
2021/12/02 12:27:28;;;;;;;11.20;4.47;;;;;;;;;;5115517;27;20055;-69
2021/12/02 12:30:00;;;;;;;8.23;3.53;;;;;;;;;;5120045;27;20062;-69
2021/12/02 12:32:56;;;;;;;10.73;4.60;;;;;;;;;;5129035;27;20091;-69
2021/12/02 12:35:30;;;;;;;10.15;3.05;;;;;;;;;;5113380;27;20056;-69
2021/12/02 12:37:58;;;;;;;8.10;3.03;;;;;;;;;;5108965;27;20054;-70
2021/12/02 12:40:26;;;;;;;8.20;3.30;;;;;;;;;;5131675;27;20132;-69
2021/12/02 12:43:02;;;;;;;10.13;3.47;;;;;;;;;;5131292;27;20071;-69
2021/12/02 12:45:29;;;;;;;10.02;3.58;;;;;;;;;;5127926;27;20139;-69
2021/12/02 12:47:59;;;;;;;11.48;4.32;;;;;;;;;;5127411;27;20486;-69
2021/12/02 12:50:28;;;;;;;14.73;3.95;;;;;;;;;;5124923;27;20144;-70
2021/12/02 12:53:17;;;;;;;11.68;3.90;;;;;;;;;;5130924;27;20162;-69
2021/12/02 12:55:52;;;;;;;12.38;4.28;;;;;;;;;;5126096;27;20445;-69
2021/12/02 12:58:20;;;;;;;7.70;3.50;;;;;;;;;;5126824;27;20135;-69
2021/12/02 13:00:51;;;;;;;8.68;3.30;;;;;;;;;;5131241;27;20052;-69
2021/12/02 13:03:26;;;;;;;8.73;3.42;;;;;;;;;;5121934;27;20058;-69
2021/12/02 13:05:58;;;;;;;9.52;3.55;;;;;;;;;;5131574;27;20052;-68
2021/12/02 13:08:26;;;;;;;11.18;4.15;;;;;;;;;;5128332;27;20060;-68
2021/12/02 13:11:02;;;;;;;9.02;3.45;;;;;;;;;;5130899;27;20075;-69
2021/12/02 13:13:34;;;;;;;6.63;3.20;;;;;;;;;;5117471;27;20576;-68
2021/12/02 13:16:21;;;;;;;9.07;3.17;;;;;;;;;;5129366;27;20054;-68
2021/12/02 13:18:48;;;;;;;14.65;3.65;;;;;;;;;;5125830;27;20132;-68
2021/12/02 13:21:24;;;;;;;10.60;3.78;;;;;;;;;;5114665;27;20520;-68
2021/12/02 13:23:58;;;;;;;11.25;3.03;;;;;;;;;;5118367;27;20142;-68
2021/12/02 13:26:29;;;;;;;17.95;4.15;;;;;;;;;;5128533;27;20131;-69
2021/12/02 13:28:57;;;;;;;12.07;3.55;;;;;;;;;;5122945;27;20059;-69
2021/12/02 13:31:24;;;;;;;11.55;2.88;;;;;;;;;;5116863;27;20485;-69
2021/12/02 13:33:54;;;;;;;9.65;3.05;;;;;;;;;;5125046;27;20063;-69
2021/12/02 13:36:40;;;;;;;14.52;2.55;;;;;;;;;;5123472;27;20070;-69
2021/12/02 13:39:06;;;;;;;10.77;2.85;;;;;;;;;;5121536;27;20054;-69
2021/12/02 13:41:37;;;;;;;13.63;2.97;;;;;;;;;;5117091;27;20051;-68
2021/12/02 13:44:05;;;;;;;14.02;3.80;;;;;;;;;;5127292;27;20058;-69
2021/12/02 13:46:40;;;;;;;11.32;3.35;;;;;;;;;;5120285;27;20044;-69
2021/12/02 13:49:12;;;;;;;9.80;3.15;;;;;;;;;;5129495;27;20059;-70
2021/12/02 13:54:33;;;;;;;10.38;2.50;;;;;;;;;;5127541;27;20539;-69
2021/12/02 13:57:00;;;;;;;7.55;2.47;;;;;;;;;;5131350;27;20062;-68
2021/12/02 13:59:37;;;;;;;7.57;1.77;;;;;;;;;;5114766;27;20090;-69
2021/12/02 14:02:04;;;;;;;9.52;1.75;;;;;;;;;;5123350;27;20085;-70
2021/12/02 14:04:41;;;;;;;10.52;2.58;;;;;;;;;;5130780;27;20147;-69
2021/12/02 14:07:14;;;;;;;9.50;1.70;;;;;;;;;;5122666;27;20514;-68
2021/12/02 14:10:07;;;;;;;10.27;1.95;;;;;;;;;;5121525;27;20159;-68
2021/12/02 14:12:39;;;;;;;11.13;2.50;;;;;;;;;;5106379;27;20044;-68
2021/12/02 14:15:11;;;;;;;16.17;2.33;;;;;;;;;;5127366;27;20040;-67
2021/12/02 14:17:51;;;;;;;7.40;1.80;;;;;;;;;;5122869;27;20404;-70
2021/12/02 14:20:18;;;;;;;8.25;1.70;;;;;;;;;;5128193;27;20091;-69
2021/12/02 14:22:49;;;;;;;9.55;2.08;;;;;;;;;;5117129;27;20151;-69
2021/12/02 14:25:15;;;;;;;8.00;1.45;;;;;;;;;;5116444;27;20054;-69
2021/12/02 14:27:42;;;;;;;8.35;1.50;;;;;;;;;;5117108;27;20055;-69
2021/12/02 14:30:10;;;;;;;6.35;1.50;;;;;;;;;;5121882;27;20527;-69
2021/12/02 14:32:36;;;;;;;12.15;1.92;;;;;;;;;;5115418;27;20058;-69
2021/12/02 14:35:13;;;;;;;9.57;1.75;;;;;;;;;;5124297;27;20543;-69
2021/12/02 14:37:41;;;;;;;8.80;2.10;;;;;;;;;;5116353;27;20054;-67
2021/12/02 14:40:09;;;;;;;5.80;1.50;;;;;;;;;;5115902;27;20044;-67
2021/12/02 14:42:35;;;;;;;8.32;1.70;;;;;;;;;;5111978;27;20510;-67
2021/12/02 14:45:18;;;;;;;8.70;1.98;;;;;;;;;;5121464;27;20139;-67
2021/12/02 14:47:44;;;;;;;7.10;1.15;;;;;;;;;;5116697;27;20051;-68
2021/12/02 14:50:12;;;;;;;6.93;1.30;;;;;;;;;;5114729;27;20135;-68
2021/12/02 14:52:38;;;;;;;5.82;1.02;;;;;;;;;;5108553;27;20101;-68
2021/12/02 14:55:07;;;;;;;11.38;1.40;;;;;;;;;;5111988;27;20079;-67
2021/12/02 14:57:34;;;;;;;8.13;1.43;;;;;;;;;;5120290;27;20109;-67
2021/12/02 15:00:03;;;;;;;6.50;1.38;;;;;;;;;;5127698;27;20052;-67
2021/12/02 15:02:38;;;;;;;12.80;1.42;;;;;;;;;;5122840;27;20059;-68
2021/12/02 15:05:24;;;;;;;4.55;1.10;;;;;;;;;;5124128;27;20056;-67
2021/12/02 15:07:55;;;;;;;4.95;0.90;;;;;;;;;;5127223;27;20585;-67
2021/12/02 15:10:35;;;;;;;10.73;1.70;;;;;;;;;;5118072;27;20464;-68
2021/12/02 15:13:06;;;;;;;5.78;1.20;;;;;;;;;;5125398;27;20091;-67
2021/12/02 15:15:32;;;;;;;9.05;1.40;;;;;;;;;;5126840;27;20048;-68